createdAt,value
2019-02-28T00:01:21.364Z,97604.56
2019-02-28T00:06:23.016Z,97597.78
2019-02-28T00:11:24.571Z,97585.80
2019-02-28T00:16:26.235Z,97576.94
2019-02-28T00:21:27.839Z,97584.52
2019-02-28T00:26:29.528Z,97573.97
2019-02-28T00:31:31.219Z,97568.81
2019-02-28T00:36:32.763Z,97570.84
2019-02-28T00:41:34.667Z,97567.75
2019-02-28T00:46:36.221Z,97560.37
2019-02-28T00:51:37.869Z,97553.11
2019-02-28T00:56:39.536Z,97536.34
2019-02-28T01:01:43.062Z,97528.42
2019-02-28T01:06:44.575Z,97513.70
2019-02-28T01:11:46.121Z,97506.16
2019-02-28T01:16:50.225Z,97485.18
2019-02-28T01:21:51.331Z,97470.16
2019-02-28T01:26:52.907Z,97467.27
2019-02-28T01:31:54.523Z,97459.70
2019-02-28T01:36:56.074Z,97444.94
2019-02-28T01:41:57.800Z,97447.58
2019-02-28T01:46:59.357Z,97437.27
2019-02-28T01:52:00.911Z,97430.72
2019-02-28T01:57:02.469Z,97423.47
2019-02-28T02:02:06.659Z,97413.01
2019-02-28T02:07:07.921Z,97403.41
2019-02-28T02:12:09.580Z,97388.34
2019-02-28T02:17:12.184Z,97382.56
2019-02-28T02:22:13.768Z,97372.02
2019-02-28T02:27:16.322Z,97364.48
2019-02-28T02:32:18.817Z,97351.38
2019-02-28T02:37:21.361Z,97329.59
2019-02-28T02:42:23.042Z,97332.63
2019-02-28T02:47:31.315Z,97320.28
2019-02-28T02:52:30.434Z,97300.52
2019-02-28T02:57:32.599Z,97293.80
2019-02-28T03:02:34.386Z,97282.75
2019-02-28T03:07:36.046Z,97266.36
2019-02-28T03:12:37.895Z,97259.66
2019-02-28T03:17:39.552Z,97249.73
2019-02-28T03:22:42.107Z,97232.23
2019-02-28T03:27:43.657Z,97218.81
2019-02-28T03:32:45.621Z,97206.62
2019-02-28T03:37:47.573Z,97193.20
2019-02-28T03:42:49.258Z,97193.08
2019-02-28T03:47:50.784Z,97193.78
2019-02-28T03:52:52.334Z,97191.56
2019-02-28T03:57:53.989Z,97184.33
2019-02-28T04:02:58.703Z,97179.72
2019-02-28T04:07:59.046Z,97175.13
2019-02-28T04:13:00.611Z,97169.16
2019-02-28T04:18:06.902Z,97171.53
2019-02-28T04:23:05.945Z,97167.47
2019-02-28T04:28:07.534Z,97155.90
2019-02-28T04:33:10.095Z,97149.36
2019-02-28T04:38:13.604Z,97145.55
2019-02-28T04:43:17.701Z,97138.22
2019-02-28T04:48:20.359Z,97128.86
2019-02-28T04:53:21.909Z,97118.70
2019-02-28T04:58:25.266Z,97102.33
2019-02-28T05:03:28.929Z,97089.98
2019-02-28T05:08:30.415Z,97104.64
2019-02-28T05:13:31.964Z,97088.13
2019-02-28T05:18:33.510Z,97079.97
2019-02-28T05:23:36.035Z,97076.02
2019-02-28T05:28:41.157Z,97066.53
2019-02-28T05:33:42.757Z,97059.13
2019-02-28T05:38:44.505Z,97051.21
2019-02-28T05:43:46.133Z,97052.41
2019-02-28T05:48:47.676Z,97044.16
2019-02-28T05:53:49.237Z,97038.74
2019-02-28T05:58:52.468Z,97028.42
2019-02-28T06:03:54.345Z,97024.36
2019-02-28T06:08:55.899Z,97005.34
2019-02-28T06:13:57.451Z,97002.00
2019-02-28T06:18:59.147Z,96989.86
2019-02-28T06:24:00.712Z,96982.42
2019-02-28T06:29:05.073Z,96979.68
2019-02-28T06:34:08.593Z,96989.13
2019-02-28T06:39:09.372Z,96983.97
2019-02-28T06:44:11.027Z,96978.73
2019-02-28T06:49:12.655Z,96967.43
2019-02-28T06:54:14.453Z,96959.98
2019-02-28T06:59:16.007Z,96957.33
2019-02-28T07:04:17.555Z,96939.29
2019-02-28T07:09:19.110Z,96935.01
2019-02-28T07:14:20.651Z,96924.57
2019-02-28T07:19:22.248Z,96912.56
2019-02-28T07:24:23.796Z,96888.31
2019-02-28T07:29:25.398Z,96897.03
2019-02-28T07:34:27.199Z,96896.09
2019-02-28T07:39:28.761Z,96889.38
2019-02-28T07:44:30.410Z,96891.42
2019-02-28T07:49:35.554Z,96881.29
2019-02-28T07:54:35.499Z,96867.86
2019-02-28T07:59:40.963Z,96867.39
2019-02-28T08:04:40.515Z,96866.41
2019-02-28T08:09:42.316Z,96880.54
2019-02-28T08:14:47.025Z,96873.23
2019-02-28T08:19:47.378Z,96867.88
2019-02-28T08:24:48.932Z,96856.38
2019-02-28T08:29:50.777Z,96861.98
2019-02-28T08:34:55.524Z,96846.61
2019-02-28T08:39:55.919Z,96840.70
2019-02-28T08:44:58.968Z,96816.97
2019-02-28T08:50:00.722Z,96817.92
2019-02-28T08:55:09.223Z,96805.52
2019-02-28T09:00:17.318Z,96795.76
2019-02-28T09:05:25.456Z,96806.29
2019-02-28T09:10:24.573Z,96814.39
2019-02-28T09:15:31.049Z,96793.63
2019-02-28T09:20:32.327Z,96804.50
2019-02-28T09:25:33.977Z,96822.27
2019-02-28T09:30:44.407Z,96813.67
2019-02-28T09:35:46.535Z,96797.53
2019-02-28T09:40:48.225Z,96795.86
2019-02-28T09:45:50.033Z,96802.88
2019-02-28T09:50:58.034Z,96791.05
2019-02-28T09:55:55.080Z,96782.73
2019-02-28T10:00:57.946Z,96786.01
2019-02-28T10:05:59.673Z,96780.36
2019-02-28T10:11:01.225Z,96785.57
2019-02-28T10:16:02.877Z,96767.59
2019-02-28T10:21:05.547Z,96770.44
2019-02-28T10:26:07.215Z,96778.55
2019-02-28T10:31:08.801Z,96764.91
2019-02-28T10:36:12.794Z,96759.41
2019-02-28T10:41:15.396Z,96754.70
2019-02-28T10:46:20.114Z,96748.23
2019-02-28T10:51:20.672Z,96742.88
2019-02-28T10:56:22.219Z,96731.50
2019-02-28T11:01:26.087Z,96717.66
2019-02-28T11:06:28.909Z,96721.91
2019-02-28T11:11:30.812Z,96718.49
2019-02-28T11:16:32.481Z,96697.53
2019-02-28T11:21:34.123Z,96698.39
2019-02-28T11:26:35.811Z,96687.20
2019-02-28T11:31:37.520Z,96690.72
2019-02-28T11:36:39.130Z,96703.55
2019-02-28T11:41:40.885Z,96699.57
2019-02-28T11:46:43.715Z,96692.41
2019-02-28T11:51:53.073Z,96698.45
2019-02-28T11:56:56.323Z,96693.09
2019-02-28T12:01:57.975Z,96690.68
2019-02-28T12:07:00.967Z,96681.95
2019-02-28T12:12:03.445Z,96699.47
2019-02-28T12:17:05.042Z,96683.65
2019-02-28T12:22:09.173Z,96694.09
2019-02-28T12:27:10.362Z,96684.80
2019-02-28T12:32:11.944Z,96689.47
2019-02-28T12:37:14.547Z,96681.47
2019-02-28T12:42:16.405Z,96677.96
2019-02-28T12:47:18.119Z,96672.41
2019-02-28T12:52:19.727Z,96655.78
2019-02-28T12:57:22.379Z,96631.81
2019-02-28T13:02:24.700Z,96651.92
2019-02-28T13:07:26.363Z,96642.72
2019-02-28T13:12:27.950Z,96636.73
2019-02-28T13:17:31.643Z,96636.62
2019-02-28T13:22:34.083Z,96634.84
2019-02-28T13:27:36.622Z,96635.60
2019-02-28T13:32:39.334Z,96655.63
2019-02-28T13:37:42.264Z,96651.72
2019-02-28T13:42:44.656Z,96634.64
2019-02-28T13:47:47.863Z,96650.09
2019-02-28T13:52:52.149Z,96657.74
2019-02-28T13:57:53.237Z,96651.97
2019-02-28T14:02:57.612Z,96651.69
2019-02-28T14:07:59.377Z,96653.44
2019-02-28T14:13:01.230Z,96633.63
2019-02-28T14:18:03.778Z,96635.64
2019-02-28T14:23:08.441Z,96629.44
2019-02-28T14:28:10.000Z,96634.44
2019-02-28T14:33:11.751Z,96622.06
2019-02-28T14:38:13.413Z,96626.45
2019-02-28T14:43:15.133Z,96628.52
2019-02-28T14:48:17.117Z,96625.88
2019-02-28T14:53:18.807Z,96626.05
2019-02-28T14:58:22.324Z,96631.14
2019-02-28T15:03:24.251Z,96621.27
2019-02-28T15:08:27.102Z,96616.08
2019-02-28T15:13:30.432Z,96625.14
2019-02-28T15:18:32.769Z,96627.58
2019-02-28T15:23:35.131Z,96621.49
2019-02-28T15:28:36.798Z,96626.94
2019-02-28T15:33:38.375Z,96632.14
2019-02-28T15:38:41.913Z,96640.19
2019-02-28T15:43:44.540Z,96643.89
2019-02-28T15:48:46.165Z,96657.06
2019-02-28T15:53:49.599Z,96655.02
2019-02-28T15:58:51.611Z,96663.23
2019-02-28T16:03:53.279Z,96662.15
2019-02-28T16:08:54.880Z,96675.64
2019-02-28T16:13:57.505Z,96676.47
2019-02-28T16:18:59.226Z,96674.80
2019-02-28T16:24:02.047Z,96684.79
2019-02-28T16:29:04.448Z,96693.90
2019-02-28T16:34:08.364Z,96690.72
2019-02-28T16:39:09.767Z,96700.28
2019-02-28T16:44:12.396Z,96708.52
2019-02-28T16:49:14.182Z,96718.73
2019-02-28T16:54:15.741Z,96712.61
2019-02-28T16:59:17.290Z,96724.12
2019-02-28T17:04:18.843Z,96737.02
2019-02-28T17:09:22.393Z,96739.14
2019-02-28T17:14:24.151Z,96731.78
2019-02-28T17:19:28.631Z,96737.22
2019-02-28T17:24:29.248Z,96747.48
2019-02-28T17:29:32.763Z,96750.14
2019-02-28T17:34:34.374Z,96749.80
2019-02-28T17:39:35.916Z,96753.93
2019-02-28T17:44:45.973Z,96755.70
2019-02-28T17:50:27.531Z,96756.33
2019-02-28T17:56:22.820Z,96766.44
2019-02-28T18:01:32.795Z,96751.93
2019-02-28T18:07:00.598Z,96756.53
2019-02-28T18:12:27.405Z,96756.14
2019-02-28T18:18:08.888Z,96762.08
2019-02-28T18:23:35.655Z,96763.02
2019-02-28T18:28:51.764Z,96771.40
2019-02-28T18:33:56.904Z,96771.52
2019-02-28T18:38:58.671Z,96775.40
2019-02-28T18:44:03.738Z,96781.44
2019-02-28T18:49:03.899Z,96785.74
2019-02-28T18:54:05.529Z,96788.30
2019-02-28T18:59:07.090Z,96780.95
2019-02-28T19:04:08.709Z,96781.88
2019-02-28T19:09:21.377Z,96785.95
2019-02-28T19:14:23.160Z,96787.79
2019-02-28T19:19:24.824Z,96795.42
2019-02-28T19:24:26.764Z,96792.72
2019-02-28T19:29:28.462Z,96795.93
2019-02-28T19:34:30.094Z,96803.92
2019-02-28T19:39:31.658Z,96804.63
2019-02-28T19:44:33.317Z,96804.52
2019-02-28T19:49:34.978Z,96802.45
2019-02-28T19:54:36.682Z,96807.39
2019-02-28T19:59:38.237Z,96802.30
2019-02-28T20:04:40.862Z,96806.77
2019-02-28T20:09:42.645Z,96813.92
2019-02-28T20:14:44.766Z,96821.33
2019-02-28T20:19:46.357Z,96819.30
2019-02-28T20:24:47.913Z,96818.39
2019-02-28T20:29:55.078Z,96816.63
2019-02-28T20:34:53.248Z,96824.16
2019-02-28T20:39:54.903Z,96830.42
2019-02-28T20:44:56.573Z,96843.66
2019-02-28T20:49:58.332Z,96830.92
2019-02-28T20:54:59.945Z,96842.89
2019-02-28T21:00:08.354Z,96842.61
2019-02-28T21:05:10.164Z,96845.20
2019-02-28T21:10:12.021Z,96856.22
2019-02-28T21:15:13.783Z,96855.11
2019-02-28T21:20:15.759Z,96856.34
2019-02-28T21:25:17.648Z,96858.73
2019-02-28T21:30:26.667Z,96858.45
2019-02-28T21:35:28.783Z,96861.77
2019-02-28T21:40:30.639Z,96857.45
2019-02-28T21:45:33.695Z,96866.70
2019-02-28T21:50:35.555Z,96868.38
2019-02-28T21:55:37.283Z,96865.67
2019-02-28T22:00:39.048Z,96869.64
2019-02-28T22:05:41.017Z,96876.89
2019-02-28T22:10:42.587Z,96873.31
2019-02-28T22:15:44.149Z,96875.31
2019-02-28T22:20:45.704Z,96879.34
2019-02-28T22:25:47.364Z,96882.95
2019-02-28T22:30:49.949Z,96882.66
2019-02-28T22:35:53.479Z,96889.69
2019-02-28T22:40:55.040Z,96891.75
2019-02-28T22:45:56.655Z,96896.97
2019-02-28T22:50:58.233Z,96898.28
2019-02-28T22:55:59.875Z,96904.65
2019-02-28T23:01:15.710Z,96897.77
2019-02-28T23:06:17.365Z,96902.69
2019-02-28T23:11:19.181Z,96905.33
2019-02-28T23:16:20.840Z,96897.93
2019-02-28T23:21:22.390Z,96899.95
2019-02-28T23:26:24.451Z,96895.89
2019-02-28T23:31:55.613Z,96913.81
2019-02-28T23:36:57.202Z,96907.92
2019-02-28T23:41:58.807Z,96912.36
2019-02-28T23:47:00.386Z,96909.25
2019-02-28T23:52:01.936Z,96910.73
2019-02-28T23:57:03.559Z,96900.80
